sensor_id;sensor_type;location;lat;lon;timestamp;temperature;humidity
15113;DHT22;7657;50.140;7.076;2022-12-18T00:02:14;-2.80;99.90
15113;DHT22;7657;50.140;7.076;2022-12-18T00:04:40;-2.70;99.90
15113;DHT22;7657;50.140;7.076;2022-12-18T00:07:07;-2.60;99.90
15113;DHT22;7657;50.140;7.076;2022-12-18T00:09:34;-2.60;99.90
15113;DHT22;7657;50.140;7.076;2022-12-18T00:12:01;-2.60;99.90
15113;DHT22;7657;50.140;7.076;2022-12-18T00:14:28;-2.70;99.90
15113;DHT22;7657;50.140;7.076;2022-12-18T00:16:56;-2.70;99.90
15113;DHT22;7657;50.140;7.076;2022-12-18T00:19:26;-2.80;99.90
15113;DHT22;7657;50.140;7.076;2022-12-18T00:21:53;-3.00;99.90
15113;DHT22;7657;50.140;7.076;2022-12-18T00:24:20;-3.10;99.90
15113;DHT22;7657;50.140;7.076;2022-12-18T00:26:47;-3.10;99.90
15113;DHT22;7657;50.140;7.076;2022-12-18T00:29:14;-3.10;99.90
15113;DHT22;7657;50.140;7.076;2022-12-18T00:31:42;-3.00;99.90
15113;DHT22;7657;50.140;7.076;2022-12-18T00:34:11;-2.90;99.90
15113;DHT22;7657;50.140;7.076;2022-12-18T00:36:39;-2.80;99.90
15113;DHT22;7657;50.140;7.076;2022-12-18T00:39:07;-2.90;99.90
15113;DHT22;7657;50.140;7.076;2022-12-18T00:41:34;-3.10;99.90
15113;DHT22;7657;50.140;7.076;2022-12-18T00:44:19;-3.00;99.90
15113;DHT22;7657;50.140;7.076;2022-12-18T00:46:47;-3.10;99.90
15113;DHT22;7657;50.140;7.076;2022-12-18T00:49:16;-3.00;99.90
15113;DHT22;7657;50.140;7.076;2022-12-18T00:51:43;-3.10;99.90
15113;DHT22;7657;50.140;7.076;2022-12-18T00:54:10;-3.20;99.90
15113;DHT22;7657;50.140;7.076;2022-12-18T00:56:37;-3.30;99.90
15113;DHT22;7657;50.140;7.076;2022-12-18T00:59:04;-3.30;99.90
15113;DHT22;7657;50.140;7.076;2022-12-18T01:01:32;-3.30;99.90
15113;DHT22;7657;50.140;7.076;2022-12-18T01:04:00;-3.20;99.90
15113;DHT22;7657;50.140;7.076;2022-12-18T01:06:28;-3.10;99.90
15113;DHT22;7657;50.140;7.076;2022-12-18T01:08:55;-3.10;99.90
15113;DHT22;7657;50.140;7.076;2022-12-18T01:11:22;-3.20;99.90
15113;DHT22;7657;50.140;7.076;2022-12-18T01:13:51;-3.20;99.90
15113;DHT22;7657;50.140;7.076;2022-12-18T01:16:18;-3.40;99.90
15113;DHT22;7657;50.140;7.076;2022-12-18T01:18:45;-3.40;99.90
15113;DHT22;7657;50.140;7.076;2022-12-18T01:21:14;-3.50;99.90
15113;DHT22;7657;50.140;7.076;2022-12-18T01:23:42;-3.40;99.90
15113;DHT22;7657;50.140;7.076;2022-12-18T01:26:11;-3.30;99.90
15113;DHT22;7657;50.140;7.076;2022-12-18T01:28:38;-3.30;99.90
15113;DHT22;7657;50.140;7.076;2022-12-18T01:31:14;-3.20;99.90
15113;DHT22;7657;50.140;7.076;2022-12-18T01:33:42;-3.30;99.90
15113;DHT22;7657;50.140;7.076;2022-12-18T01:36:14;-3.40;99.90
15113;DHT22;7657;50.140;7.076;2022-12-18T01:38:42;-3.30;99.90
15113;DHT22;7657;50.140;7.076;2022-12-18T01:41:09;-3.40;99.90
15113;DHT22;7657;50.140;7.076;2022-12-18T01:43:52;-3.30;99.90
15113;DHT22;7657;50.140;7.076;2022-12-18T01:46:20;-3.20;99.90
15113;DHT22;7657;50.140;7.076;2022-12-18T01:48:50;-3.10;99.90
15113;DHT22;7657;50.140;7.076;2022-12-18T01:51:18;-3.20;99.90
15113;DHT22;7657;50.140;7.076;2022-12-18T01:53:47;-3.20;99.90
15113;DHT22;7657;50.140;7.076;2022-12-18T01:56:16;-3.10;99.90
15113;DHT22;7657;50.140;7.076;2022-12-18T01:58:51;-3.00;99.90
15113;DHT22;7657;50.140;7.076;2022-12-18T02:01:22;-3.00;99.90
15113;DHT22;7657;50.140;7.076;2022-12-18T02:03:49;-3.00;99.90
15113;DHT22;7657;50.140;7.076;2022-12-18T02:06:20;-2.90;99.90
15113;DHT22;7657;50.140;7.076;2022-12-18T02:09:01;-2.90;99.90
15113;DHT22;7657;50.140;7.076;2022-12-18T02:11:36;-2.80;99.90
15113;DHT22;7657;50.140;7.076;2022-12-18T02:14:16;-2.80;99.90
15113;DHT22;7657;50.140;7.076;2022-12-18T02:16:45;-2.70;99.90
15113;DHT22;7657;50.140;7.076;2022-12-18T02:19:27;-2.70;99.90
15113;DHT22;7657;50.140;7.076;2022-12-18T02:22:10;-2.80;99.90
15113;DHT22;7657;50.140;7.076;2022-12-18T02:24:47;-2.80;99.90
15113;DHT22;7657;50.140;7.076;2022-12-18T02:27:19;-2.90;99.90
15113;DHT22;7657;50.140;7.076;2022-12-18T02:29:49;-3.20;99.90
15113;DHT22;7657;50.140;7.076;2022-12-18T02:32:20;-3.10;99.90
15113;DHT22;7657;50.140;7.076;2022-12-18T02:34:49;-3.10;99.90
15113;DHT22;7657;50.140;7.076;2022-12-18T02:37:18;-3.00;99.90
15113;DHT22;7657;50.140;7.076;2022-12-18T02:39:47;-2.90;99.90
15113;DHT22;7657;50.140;7.076;2022-12-18T02:42:16;-3.00;99.90
15113;DHT22;7657;50.140;7.076;2022-12-18T02:44:47;-3.00;99.90
15113;DHT22;7657;50.140;7.076;2022-12-18T02:47:16;-2.90;99.90
15113;DHT22;7657;50.140;7.076;2022-12-18T02:49:52;-3.10;99.90
15113;DHT22;7657;50.140;7.076;2022-12-18T02:52:27;-3.10;99.90
15113;DHT22;7657;50.140;7.076;2022-12-18T02:55:03;-3.10;99.90
15113;DHT22;7657;50.140;7.076;2022-12-18T02:57:39;-3.10;99.90
15113;DHT22;7657;50.140;7.076;2022-12-18T03:00:11;-3.10;99.90
15113;DHT22;7657;50.140;7.076;2022-12-18T03:02:41;-2.90;99.90
15113;DHT22;7657;50.140;7.076;2022-12-18T03:05:15;-2.90;99.90
15113;DHT22;7657;50.140;7.076;2022-12-18T03:07:49;-2.90;99.90
15113;DHT22;7657;50.140;7.076;2022-12-18T03:10:21;-2.90;99.90
15113;DHT22;7657;50.140;7.076;2022-12-18T03:12:52;-3.00;99.90
15113;DHT22;7657;50.140;7.076;2022-12-18T03:15:25;-2.90;99.90
15113;DHT22;7657;50.140;7.076;2022-12-18T03:17:57;-2.90;99.90
15113;DHT22;7657;50.140;7.076;2022-12-18T03:20:27;-2.90;99.90
15113;DHT22;7657;50.140;7.076;2022-12-18T03:23:01;-2.90;99.90
15113;DHT22;7657;50.140;7.076;2022-12-18T03:25:30;-2.90;99.90
15113;DHT22;7657;50.140;7.076;2022-12-18T03:28:01;-2.90;99.90
15113;DHT22;7657;50.140;7.076;2022-12-18T03:30:33;-3.00;99.90
15113;DHT22;7657;50.140;7.076;2022-12-18T03:33:07;-3.00;99.90
15113;DHT22;7657;50.140;7.076;2022-12-18T03:35:38;-3.00;99.90
15113;DHT22;7657;50.140;7.076;2022-12-18T03:38:06;-3.20;99.90
15113;DHT22;7657;50.140;7.076;2022-12-18T03:40:39;-3.60;99.90
15113;DHT22;7657;50.140;7.076;2022-12-18T03:43:12;-3.50;99.90
15113;DHT22;7657;50.140;7.076;2022-12-18T03:45:48;-3.80;99.90
15113;DHT22;7657;50.140;7.076;2022-12-18T03:48:20;-3.70;99.90
15113;DHT22;7657;50.140;7.076;2022-12-18T03:50:56;-3.60;99.90
15113;DHT22;7657;50.140;7.076;2022-12-18T03:53:29;-3.60;99.90
15113;DHT22;7657;50.140;7.076;2022-12-18T03:55:59;-3.50;99.90
15113;DHT22;7657;50.140;7.076;2022-12-18T03:58:28;-3.50;99.90
15113;DHT22;7657;50.140;7.076;2022-12-18T04:01:00;-3.60;99.90
15113;DHT22;7657;50.140;7.076;2022-12-18T04:03:29;-3.50;99.90
15113;DHT22;7657;50.140;7.076;2022-12-18T04:05:59;-3.60;99.90
15113;DHT22;7657;50.140;7.076;2022-12-18T04:08:27;-3.60;99.90
15113;DHT22;7657;50.140;7.076;2022-12-18T04:10:54;-3.60;99.90
15113;DHT22;7657;50.140;7.076;2022-12-18T04:13:27;-3.60;99.90
15113;DHT22;7657;50.140;7.076;2022-12-18T04:15:54;-3.60;99.90
15113;DHT22;7657;50.140;7.076;2022-12-18T04:18:22;-3.70;99.90
15113;DHT22;7657;50.140;7.076;2022-12-18T04:20:49;-3.70;99.90
15113;DHT22;7657;50.140;7.076;2022-12-18T04:23:16;-3.50;99.90
15113;DHT22;7657;50.140;7.076;2022-12-18T04:25:43;-3.40;99.90
15113;DHT22;7657;50.140;7.076;2022-12-18T04:28:09;-3.30;99.90
15113;DHT22;7657;50.140;7.076;2022-12-18T04:30:36;-3.30;99.90
15113;DHT22;7657;50.140;7.076;2022-12-18T04:33:03;-3.30;99.90
15113;DHT22;7657;50.140;7.076;2022-12-18T04:35:32;-3.30;99.90
15113;DHT22;7657;50.140;7.076;2022-12-18T04:37:59;-3.20;99.90
15113;DHT22;7657;50.140;7.076;2022-12-18T04:40:25;-3.40;99.90
15113;DHT22;7657;50.140;7.076;2022-12-18T04:42:52;-3.50;99.90
15113;DHT22;7657;50.140;7.076;2022-12-18T04:45:19;-3.60;99.90
15113;DHT22;7657;50.140;7.076;2022-12-18T04:47:46;-3.60;99.90
15113;DHT22;7657;50.140;7.076;2022-12-18T04:50:13;-3.60;99.90
15113;DHT22;7657;50.140;7.076;2022-12-18T04:52:41;-3.50;99.90
15113;DHT22;7657;50.140;7.076;2022-12-18T04:55:08;-3.50;99.90
15113;DHT22;7657;50.140;7.076;2022-12-18T04:57:35;-3.50;99.90
15113;DHT22;7657;50.140;7.076;2022-12-18T05:00:02;-3.60;99.90
15113;DHT22;7657;50.140;7.076;2022-12-18T05:02:29;-3.50;99.90
15113;DHT22;7657;50.140;7.076;2022-12-18T05:04:56;-3.40;99.90
15113;DHT22;7657;50.140;7.076;2022-12-18T05:07:23;-3.30;99.90
15113;DHT22;7657;50.140;7.076;2022-12-18T05:09:52;-3.30;99.90
15113;DHT22;7657;50.140;7.076;2022-12-18T05:12:19;-3.40;99.90
15113;DHT22;7657;50.140;7.076;2022-12-18T05:14:45;-3.30;99.90
15113;DHT22;7657;50.140;7.076;2022-12-18T05:17:12;-3.30;99.90
15113;DHT22;7657;50.140;7.076;2022-12-18T05:19:39;-3.60;99.90
15113;DHT22;7657;50.140;7.076;2022-12-18T05:22:06;-3.70;99.90
15113;DHT22;7657;50.140;7.076;2022-12-18T05:24:33;-3.80;99.90
15113;DHT22;7657;50.140;7.076;2022-12-18T05:27:01;-3.80;99.90
15113;DHT22;7657;50.140;7.076;2022-12-18T05:29:28;-3.70;99.90
15113;DHT22;7657;50.140;7.076;2022-12-18T05:31:55;-3.70;99.90
15113;DHT22;7657;50.140;7.076;2022-12-18T05:34:22;-3.90;99.90
15113;DHT22;7657;50.140;7.076;2022-12-18T05:36:49;-3.90;99.90
15113;DHT22;7657;50.140;7.076;2022-12-18T05:39:15;-3.90;99.90
15113;DHT22;7657;50.140;7.076;2022-12-18T05:41:42;-3.70;99.90
15113;DHT22;7657;50.140;7.076;2022-12-18T05:44:11;-3.80;99.90
15113;DHT22;7657;50.140;7.076;2022-12-18T05:46:38;-4.10;99.90
15113;DHT22;7657;50.140;7.076;2022-12-18T05:49:07;-4.00;99.90
15113;DHT22;7657;50.140;7.076;2022-12-18T05:51:34;-3.90;99.90
15113;DHT22;7657;50.140;7.076;2022-12-18T05:54:01;-4.00;99.90
15113;DHT22;7657;50.140;7.076;2022-12-18T05:56:28;-3.90;99.90
15113;DHT22;7657;50.140;7.076;2022-12-18T05:58:55;-3.80;99.90
15113;DHT22;7657;50.140;7.076;2022-12-18T06:01:25;-3.60;99.90
15113;DHT22;7657;50.140;7.076;2022-12-18T06:03:52;-3.50;99.90
15113;DHT22;7657;50.140;7.076;2022-12-18T06:06:21;-3.50;99.90
15113;DHT22;7657;50.140;7.076;2022-12-18T06:08:49;-3.60;99.90
15113;DHT22;7657;50.140;7.076;2022-12-18T06:11:18;-3.50;99.90
15113;DHT22;7657;50.140;7.076;2022-12-18T06:13:45;-3.40;99.90
15113;DHT22;7657;50.140;7.076;2022-12-18T06:16:12;-3.40;99.90
15113;DHT22;7657;50.140;7.076;2022-12-18T06:18:40;-3.30;99.90
15113;DHT22;7657;50.140;7.076;2022-12-18T06:21:07;-3.40;99.90
15113;DHT22;7657;50.140;7.076;2022-12-18T06:23:34;-3.50;99.90
15113;DHT22;7657;50.140;7.076;2022-12-18T06:26:04;-3.40;99.90
15113;DHT22;7657;50.140;7.076;2022-12-18T06:28:31;-3.30;99.90
15113;DHT22;7657;50.140;7.076;2022-12-18T06:30:57;-3.30;99.90
15113;DHT22;7657;50.140;7.076;2022-12-18T06:33:26;-3.30;99.90
15113;DHT22;7657;50.140;7.076;2022-12-18T06:35:59;-3.50;99.90
15113;DHT22;7657;50.140;7.076;2022-12-18T06:38:26;-3.70;99.90
15113;DHT22;7657;50.140;7.076;2022-12-18T06:40:53;-3.80;99.90
15113;DHT22;7657;50.140;7.076;2022-12-18T06:43:20;-3.90;99.90
15113;DHT22;7657;50.140;7.076;2022-12-18T06:45:47;-4.00;99.90
15113;DHT22;7657;50.140;7.076;2022-12-18T06:48:18;-3.90;99.90
15113;DHT22;7657;50.140;7.076;2022-12-18T06:50:45;-4.00;99.90
15113;DHT22;7657;50.140;7.076;2022-12-18T06:53:13;-3.90;99.90
15113;DHT22;7657;50.140;7.076;2022-12-18T06:55:40;-3.90;99.90
15113;DHT22;7657;50.140;7.076;2022-12-18T06:58:07;-3.80;99.90
15113;DHT22;7657;50.140;7.076;2022-12-18T07:00:34;-3.70;99.90
15113;DHT22;7657;50.140;7.076;2022-12-18T07:03:00;-3.60;99.90
15113;DHT22;7657;50.140;7.076;2022-12-18T07:05:27;-3.60;99.90
15113;DHT22;7657;50.140;7.076;2022-12-18T07:07:54;-3.50;99.90
15113;DHT22;7657;50.140;7.076;2022-12-18T07:10:23;-3.40;99.90
15113;DHT22;7657;50.140;7.076;2022-12-18T07:12:50;-3.40;99.90
15113;DHT22;7657;50.140;7.076;2022-12-18T07:15:17;-3.40;99.90
15113;DHT22;7657;50.140;7.076;2022-12-18T07:17:43;-3.40;99.90
15113;DHT22;7657;50.140;7.076;2022-12-18T07:20:11;-3.40;99.90
15113;DHT22;7657;50.140;7.076;2022-12-18T07:22:37;-3.40;99.90
15113;DHT22;7657;50.140;7.076;2022-12-18T07:25:06;-3.40;99.90
15113;DHT22;7657;50.140;7.076;2022-12-18T07:27:34;-3.50;99.90
15113;DHT22;7657;50.140;7.076;2022-12-18T07:30:01;-3.60;99.90
15113;DHT22;7657;50.140;7.076;2022-12-18T07:32:28;-3.80;99.90
15113;DHT22;7657;50.140;7.076;2022-12-18T07:34:56;-3.80;99.90
15113;DHT22;7657;50.140;7.076;2022-12-18T07:37:23;-3.80;99.90
15113;DHT22;7657;50.140;7.076;2022-12-18T07:39:50;-3.90;99.90
15113;DHT22;7657;50.140;7.076;2022-12-18T07:42:17;-3.80;99.90
15113;DHT22;7657;50.140;7.076;2022-12-18T07:45:00;-3.90;99.90
15113;DHT22;7657;50.140;7.076;2022-12-18T07:47:27;-4.00;99.90
15113;DHT22;7657;50.140;7.076;2022-12-18T07:49:55;-3.90;99.90
15113;DHT22;7657;50.140;7.076;2022-12-18T07:52:21;-3.90;99.90
15113;DHT22;7657;50.140;7.076;2022-12-18T07:54:48;-3.90;99.90
15113;DHT22;7657;50.140;7.076;2022-12-18T07:57:15;-3.80;99.90
15113;DHT22;7657;50.140;7.076;2022-12-18T07:59:42;-3.80;99.90
15113;DHT22;7657;50.140;7.076;2022-12-18T08:02:11;-3.80;99.90
15113;DHT22;7657;50.140;7.076;2022-12-18T08:04:37;-3.70;99.90
15113;DHT22;7657;50.140;7.076;2022-12-18T08:07:04;-3.80;99.90
15113;DHT22;7657;50.140;7.076;2022-12-18T08:09:31;-3.70;99.90
15113;DHT22;7657;50.140;7.076;2022-12-18T08:11:58;-3.60;99.90
15113;DHT22;7657;50.140;7.076;2022-12-18T08:14:25;-3.60;99.90
15113;DHT22;7657;50.140;7.076;2022-12-18T08:16:52;-3.50;99.90
15113;DHT22;7657;50.140;7.076;2022-12-18T08:19:20;-3.50;99.90
15113;DHT22;7657;50.140;7.076;2022-12-18T08:21:47;-3.40;99.90
15113;DHT22;7657;50.140;7.076;2022-12-18T08:24:14;-3.40;99.90
15113;DHT22;7657;50.140;7.076;2022-12-18T08:26:41;-3.40;99.90
15113;DHT22;7657;50.140;7.076;2022-12-18T08:29:09;-3.30;99.90
15113;DHT22;7657;50.140;7.076;2022-12-18T08:31:38;-3.10;99.90
15113;DHT22;7657;50.140;7.076;2022-12-18T08:34:05;-3.20;99.90
15113;DHT22;7657;50.140;7.076;2022-12-18T08:36:33;-3.10;99.90
15113;DHT22;7657;50.140;7.076;2022-12-18T08:39:00;-3.00;99.90
15113;DHT22;7657;50.140;7.076;2022-12-18T08:41:27;-3.10;99.90
15113;DHT22;7657;50.140;7.076;2022-12-18T08:43:54;-3.00;99.90
15113;DHT22;7657;50.140;7.076;2022-12-18T08:46:40;-3.00;99.90
15113;DHT22;7657;50.140;7.076;2022-12-18T08:49:09;-2.90;99.90
15113;DHT22;7657;50.140;7.076;2022-12-18T08:51:37;-2.80;99.90
15113;DHT22;7657;50.140;7.076;2022-12-18T08:54:05;-2.90;99.90
15113;DHT22;7657;50.140;7.076;2022-12-18T08:56:33;-2.90;99.90
15113;DHT22;7657;50.140;7.076;2022-12-18T08:59:00;-2.80;99.90
15113;DHT22;7657;50.140;7.076;2022-12-18T09:01:26;-2.70;99.90
15113;DHT22;7657;50.140;7.076;2022-12-18T09:03:53;-2.70;99.90
15113;DHT22;7657;50.140;7.076;2022-12-18T09:06:22;-2.70;99.90
15113;DHT22;7657;50.140;7.076;2022-12-18T09:08:50;-2.60;99.90
15113;DHT22;7657;50.140;7.076;2022-12-18T09:11:20;-2.50;99.90
15113;DHT22;7657;50.140;7.076;2022-12-18T09:13:48;-2.30;99.90
15113;DHT22;7657;50.140;7.076;2022-12-18T09:16:15;-2.40;99.90
15113;DHT22;7657;50.140;7.076;2022-12-18T09:18:42;-2.50;99.90
15113;DHT22;7657;50.140;7.076;2022-12-18T09:21:11;-2.50;99.90
15113;DHT22;7657;50.140;7.076;2022-12-18T09:23:38;-2.60;99.90
15113;DHT22;7657;50.140;7.076;2022-12-18T09:26:06;-2.60;99.90
15113;DHT22;7657;50.140;7.076;2022-12-18T09:28:33;-2.70;99.90
15113;DHT22;7657;50.140;7.076;2022-12-18T09:31:04;-2.50;99.90
15113;DHT22;7657;50.140;7.076;2022-12-18T09:33:32;-2.40;99.90
15113;DHT22;7657;50.140;7.076;2022-12-18T09:36:01;-2.50;99.90
15113;DHT22;7657;50.140;7.076;2022-12-18T09:38:28;-2.50;99.90
15113;DHT22;7657;50.140;7.076;2022-12-18T09:40:59;-2.20;99.90
15113;DHT22;7657;50.140;7.076;2022-12-18T09:43:33;-2.10;99.90
15113;DHT22;7657;50.140;7.076;2022-12-18T09:46:06;-2.10;99.90
15113;DHT22;7657;50.140;7.076;2022-12-18T09:48:35;-2.20;99.90
15113;DHT22;7657;50.140;7.076;2022-12-18T09:51:13;-2.30;99.90
15113;DHT22;7657;50.140;7.076;2022-12-18T09:53:43;-2.30;99.90
15113;DHT22;7657;50.140;7.076;2022-12-18T09:56:16;-2.20;99.90
15113;DHT22;7657;50.140;7.076;2022-12-18T09:58:48;-2.30;99.90
15113;DHT22;7657;50.140;7.076;2022-12-18T10:01:20;-2.50;99.90
15113;DHT22;7657;50.140;7.076;2022-12-18T10:03:48;-2.60;99.90
15113;DHT22;7657;50.140;7.076;2022-12-18T10:06:20;-2.60;99.90
15113;DHT22;7657;50.140;7.076;2022-12-18T10:08:53;-2.50;99.90
15113;DHT22;7657;50.140;7.076;2022-12-18T10:11:32;-2.50;99.90
15113;DHT22;7657;50.140;7.076;2022-12-18T10:14:09;-2.50;99.90
15113;DHT22;7657;50.140;7.076;2022-12-18T10:16:46;-2.40;99.90
15113;DHT22;7657;50.140;7.076;2022-12-18T10:19:25;-2.30;99.90
15113;DHT22;7657;50.140;7.076;2022-12-18T10:22:01;-2.10;99.90
15113;DHT22;7657;50.140;7.076;2022-12-18T10:24:35;-2.00;99.90
15113;DHT22;7657;50.140;7.076;2022-12-18T10:27:12;-1.90;99.90
15113;DHT22;7657;50.140;7.076;2022-12-18T10:29:42;-1.80;99.90
15113;DHT22;7657;50.140;7.076;2022-12-18T10:32:14;-1.80;99.90
15113;DHT22;7657;50.140;7.076;2022-12-18T10:34:45;-1.60;99.90
15113;DHT22;7657;50.140;7.076;2022-12-18T10:37:16;-1.60;99.90
15113;DHT22;7657;50.140;7.076;2022-12-18T10:39:45;-1.60;99.90
15113;DHT22;7657;50.140;7.076;2022-12-18T10:42:17;-1.70;99.90
15113;DHT22;7657;50.140;7.076;2022-12-18T10:44:45;-1.50;99.90
15113;DHT22;7657;50.140;7.076;2022-12-18T10:47:14;-1.40;99.90
15113;DHT22;7657;50.140;7.076;2022-12-18T10:49:51;-1.40;99.90
15113;DHT22;7657;50.140;7.076;2022-12-18T10:52:21;-1.20;99.90
15113;DHT22;7657;50.140;7.076;2022-12-18T10:54:50;-1.20;99.90
15113;DHT22;7657;50.140;7.076;2022-12-18T10:57:33;-1.10;99.90
15113;DHT22;7657;50.140;7.076;2022-12-18T11:00:22;-1.00;99.90
15113;DHT22;7657;50.140;7.076;2022-12-18T11:02:49;-0.90;99.90
15113;DHT22;7657;50.140;7.076;2022-12-18T11:05:28;-0.80;99.90
15113;DHT22;7657;50.140;7.076;2022-12-18T11:07:56;-0.80;99.90
15113;DHT22;7657;50.140;7.076;2022-12-18T11:10:29;-0.80;99.90
15113;DHT22;7657;50.140;7.076;2022-12-18T11:13:12;-0.70;99.90
15113;DHT22;7657;50.140;7.076;2022-12-18T11:15:43;-0.70;99.90
15113;DHT22;7657;50.140;7.076;2022-12-18T11:18:17;-0.90;99.90
15113;DHT22;7657;50.140;7.076;2022-12-18T11:20:50;-0.90;99.90
15113;DHT22;7657;50.140;7.076;2022-12-18T11:23:19;-0.90;99.90
15113;DHT22;7657;50.140;7.076;2022-12-18T11:25:56;-0.90;99.90
15113;DHT22;7657;50.140;7.076;2022-12-18T11:28:37;-0.80;99.90
15113;DHT22;7657;50.140;7.076;2022-12-18T11:31:25;-0.80;99.90
15113;DHT22;7657;50.140;7.076;2022-12-18T11:34:02;-0.70;99.90
15113;DHT22;7657;50.140;7.076;2022-12-18T11:36:34;-0.50;99.90
15113;DHT22;7657;50.140;7.076;2022-12-18T11:39:12;-0.40;99.90
15113;DHT22;7657;50.140;7.076;2022-12-18T11:41:47;-0.30;99.90
15113;DHT22;7657;50.140;7.076;2022-12-18T11:44:37;-0.40;99.90
15113;DHT22;7657;50.140;7.076;2022-12-18T11:47:15;-0.40;99.90
15113;DHT22;7657;50.140;7.076;2022-12-18T11:49:48;-0.30;99.90
15113;DHT22;7657;50.140;7.076;2022-12-18T11:52:18;-0.30;99.90
15113;DHT22;7657;50.140;7.076;2022-12-18T11:54:45;-0.30;99.90
15113;DHT22;7657;50.140;7.076;2022-12-18T11:57:22;-0.30;99.90
15113;DHT22;7657;50.140;7.076;2022-12-18T11:59:55;-0.30;99.90
15113;DHT22;7657;50.140;7.076;2022-12-18T12:02:47;-0.20;99.90
15113;DHT22;7657;50.140;7.076;2022-12-18T12:05:31;-0.20;99.90
15113;DHT22;7657;50.140;7.076;2022-12-18T12:08:08;-0.30;99.90
15113;DHT22;7657;50.140;7.076;2022-12-18T12:10:43;-0.30;99.90
15113;DHT22;7657;50.140;7.076;2022-12-18T12:13:23;-0.20;99.90
15113;DHT22;7657;50.140;7.076;2022-12-18T12:16:04;-0.20;99.90
15113;DHT22;7657;50.140;7.076;2022-12-18T12:18:54;-0.40;99.90
15113;DHT22;7657;50.140;7.076;2022-12-18T12:21:27;-0.50;99.90
15113;DHT22;7657;50.140;7.076;2022-12-18T12:24:01;-0.60;99.90
15113;DHT22;7657;50.140;7.076;2022-12-18T12:26:35;-0.60;99.90
15113;DHT22;7657;50.140;7.076;2022-12-18T12:29:20;-0.60;99.90
15113;DHT22;7657;50.140;7.076;2022-12-18T12:31:58;-0.80;99.90
15113;DHT22;7657;50.140;7.076;2022-12-18T12:34:34;-0.80;99.90
15113;DHT22;7657;50.140;7.076;2022-12-18T12:37:14;-0.80;99.90
15113;DHT22;7657;50.140;7.076;2022-12-18T12:39:44;-0.90;99.90
15113;DHT22;7657;50.140;7.076;2022-12-18T12:42:16;-1.00;99.90
15113;DHT22;7657;50.140;7.076;2022-12-18T12:45:05;-1.00;99.90
15113;DHT22;7657;50.140;7.076;2022-12-18T12:47:37;-1.00;99.90
15113;DHT22;7657;50.140;7.076;2022-12-18T12:50:13;-1.00;99.90
15113;DHT22;7657;50.140;7.076;2022-12-18T12:52:43;-1.10;99.90
15113;DHT22;7657;50.140;7.076;2022-12-18T12:55:16;-1.10;99.90
15113;DHT22;7657;50.140;7.076;2022-12-18T12:57:46;-1.00;99.90
15113;DHT22;7657;50.140;7.076;2022-12-18T13:00:16;-1.00;99.90
15113;DHT22;7657;50.140;7.076;2022-12-18T13:02:50;-1.20;99.90
15113;DHT22;7657;50.140;7.076;2022-12-18T13:05:24;-1.20;99.90
15113;DHT22;7657;50.140;7.076;2022-12-18T13:07:55;-1.10;99.90
15113;DHT22;7657;50.140;7.076;2022-12-18T13:10:32;-1.20;99.90
15113;DHT22;7657;50.140;7.076;2022-12-18T13:13:01;-1.20;99.90
15113;DHT22;7657;50.140;7.076;2022-12-18T13:15:33;-1.40;99.90
15113;DHT22;7657;50.140;7.076;2022-12-18T13:18:17;-1.30;99.90
15113;DHT22;7657;50.140;7.076;2022-12-18T13:20:47;-1.40;99.90
15113;DHT22;7657;50.140;7.076;2022-12-18T13:23:29;-1.40;99.90
15113;DHT22;7657;50.140;7.076;2022-12-18T13:25:58;-1.30;99.90
15113;DHT22;7657;50.140;7.076;2022-12-18T13:28:49;-1.40;99.90
15113;DHT22;7657;50.140;7.076;2022-12-18T13:34:34;-1.30;99.90
15113;DHT22;7657;50.140;7.076;2022-12-18T13:43:33;-1.40;99.90
15113;DHT22;7657;50.140;7.076;2022-12-18T13:46:04;-1.20;99.90
15113;DHT22;7657;50.140;7.076;2022-12-18T13:48:34;-1.10;99.90
15113;DHT22;7657;50.140;7.076;2022-12-18T13:51:04;-1.10;99.90
15113;DHT22;7657;50.140;7.076;2022-12-18T13:53:35;-1.10;99.90
15113;DHT22;7657;50.140;7.076;2022-12-18T13:56:04;-1.10;99.90
15113;DHT22;7657;50.140;7.076;2022-12-18T13:58:33;-1.10;99.90
15113;DHT22;7657;50.140;7.076;2022-12-18T14:01:00;-1.20;99.90
15113;DHT22;7657;50.140;7.076;2022-12-18T14:03:28;-1.30;99.90
15113;DHT22;7657;50.140;7.076;2022-12-18T14:06:02;-1.20;99.90
15113;DHT22;7657;50.140;7.076;2022-12-18T14:08:37;-1.30;99.90
15113;DHT22;7657;50.140;7.076;2022-12-18T14:11:06;-1.30;99.90
15113;DHT22;7657;50.140;7.076;2022-12-18T14:13:37;-1.40;99.90
15113;DHT22;7657;50.140;7.076;2022-12-18T14:16:05;-1.40;99.90
15113;DHT22;7657;50.140;7.076;2022-12-18T14:18:41;-1.50;99.90
15113;DHT22;7657;50.140;7.076;2022-12-18T14:21:18;-1.60;99.90
15113;DHT22;7657;50.140;7.076;2022-12-18T14:23:46;-1.50;99.90
15113;DHT22;7657;50.140;7.076;2022-12-18T14:26:24;-1.50;99.90
15113;DHT22;7657;50.140;7.076;2022-12-18T14:28:55;-1.70;99.90
15113;DHT22;7657;50.140;7.076;2022-12-18T14:31:24;-1.60;99.90
15113;DHT22;7657;50.140;7.076;2022-12-18T14:33:52;-1.60;99.90
15113;DHT22;7657;50.140;7.076;2022-12-18T14:36:20;-1.70;99.90
15113;DHT22;7657;50.140;7.076;2022-12-18T14:38:49;-1.70;99.90
15113;DHT22;7657;50.140;7.076;2022-12-18T14:41:18;-1.80;99.90
15113;DHT22;7657;50.140;7.076;2022-12-18T14:43:47;-1.80;99.90
15113;DHT22;7657;50.140;7.076;2022-12-18T14:46:34;-1.90;99.90
15113;DHT22;7657;50.140;7.076;2022-12-18T14:49:03;-1.90;99.90
15113;DHT22;7657;50.140;7.076;2022-12-18T14:51:32;-1.80;99.90
15113;DHT22;7657;50.140;7.076;2022-12-18T14:54:01;-1.90;99.90
15113;DHT22;7657;50.140;7.076;2022-12-18T14:56:30;-1.90;99.90
15113;DHT22;7657;50.140;7.076;2022-12-18T14:58:59;-1.80;99.90
15113;DHT22;7657;50.140;7.076;2022-12-18T15:01:29;-1.70;99.90
15113;DHT22;7657;50.140;7.076;2022-12-18T15:03:58;-1.70;99.90
15113;DHT22;7657;50.140;7.076;2022-12-18T15:06:29;-1.70;99.90
15113;DHT22;7657;50.140;7.076;2022-12-18T15:08:57;-1.60;99.90
15113;DHT22;7657;50.140;7.076;2022-12-18T15:11:44;-1.50;99.90
15113;DHT22;7657;50.140;7.076;2022-12-18T15:14:32;-1.60;99.90
15113;DHT22;7657;50.140;7.076;2022-12-18T15:17:02;-1.70;99.90
15113;DHT22;7657;50.140;7.076;2022-12-18T15:19:36;-1.80;99.90
15113;DHT22;7657;50.140;7.076;2022-12-18T15:22:04;-1.70;99.90
15113;DHT22;7657;50.140;7.076;2022-12-18T15:24:31;-1.70;99.90
15113;DHT22;7657;50.140;7.076;2022-12-18T15:26:59;-1.60;99.90
15113;DHT22;7657;50.140;7.076;2022-12-18T15:29:26;-1.70;99.90
15113;DHT22;7657;50.140;7.076;2022-12-18T15:32:01;-1.70;99.90
15113;DHT22;7657;50.140;7.076;2022-12-18T15:34:28;-1.60;99.90
15113;DHT22;7657;50.140;7.076;2022-12-18T15:36:56;-1.60;99.90
15113;DHT22;7657;50.140;7.076;2022-12-18T15:39:23;-1.60;99.90
15113;DHT22;7657;50.140;7.076;2022-12-18T15:41:50;-1.50;99.90
15113;DHT22;7657;50.140;7.076;2022-12-18T15:44:35;-1.50;99.90
15113;DHT22;7657;50.140;7.076;2022-12-18T15:47:02;-1.40;99.90
15113;DHT22;7657;50.140;7.076;2022-12-18T15:49:28;-1.60;99.90
15113;DHT22;7657;50.140;7.076;2022-12-18T15:51:59;-1.60;99.90
15113;DHT22;7657;50.140;7.076;2022-12-18T15:54:26;-1.60;99.90
15113;DHT22;7657;50.140;7.076;2022-12-18T15:57:11;-1.60;99.90
15113;DHT22;7657;50.140;7.076;2022-12-18T15:59:50;-1.60;99.90
15113;DHT22;7657;50.140;7.076;2022-12-18T16:02:19;-1.70;99.90
15113;DHT22;7657;50.140;7.076;2022-12-18T16:04:48;-1.70;99.90
15113;DHT22;7657;50.140;7.076;2022-12-18T16:07:16;-1.70;99.90
15113;DHT22;7657;50.140;7.076;2022-12-18T16:09:43;-1.70;99.90
15113;DHT22;7657;50.140;7.076;2022-12-18T16:12:16;-1.80;99.90
15113;DHT22;7657;50.140;7.076;2022-12-18T16:14:43;-1.80;99.90
15113;DHT22;7657;50.140;7.076;2022-12-18T16:17:11;-1.90;99.90